Карточка аэропорта UUDD

Внимание!
Информация на этой странице в стадии наполнения.
Если вы не увидели какой-то информации, или заметили неточность - пожалуйста сообщите нам!
Спасибо!
Команда RU-STAFF
Название аэропортаДомодедово
Название аэропорта (англ.)Domodedovo
Превышение594 ft. (181.1 m.)
Координаты55°24.516', 37°54.384'
Высота перехода10000 ft
Эшелон переходаQNH>=1013hPa:FL110; QNH<1013hPa:FL120; QNH<977hPa:FL130
Коды ответчика1540-1577
Зона ОрВДМосква РПИ (UUWV)
Данные METARUUDD 161100Z 28005MPS 250V320 9999 BKN042 13/M01 Q1001 WS R32L R32L/CLRD60 NOSIG
Проноз погоды (TAF)UUDD 160756Z 1609/1715 26006G12MPS 9999 BKN016 TX14/1712Z TN06/1703Z BECMG 1614/1616 17003MPS TEMPO 1622/1706 3000 -SHRA FEW004 BKN012CB BECMG 1704/1706 26006MPS TEMPO 1707/1713 26008G13MPS
NOTAMshow/hide NOTAM
AWOS   TABLE

Информация о ВПП

ВПП Длина ВПП (м.) Покрытие Курс ВПП Частота ILS
14L2370Железобетон135 
32R2370Железобетон315 
14R3500Цементобетон135110.1
32L3500Цементобетон315109.3
143800Цементобетон135108.5
323800Цементобетон315111.9

Диспетчерские позиции

Позывной Наименование органа УВД Частота
UUDD_TWRДомодедово-Вышка118.600
UUDD_GNDДомодедово-Перрон119.000
UUDD_R_APPДомодедово-Круг119.400
UUDD_TWRДомодедово-Вышка119.700
UUDD_R_APPДомодедово-Круг125.300
UUDD_TWRДомодедово-Вышка127.300
UUDD_R_APPДомодедово-Круг127.700
UUDD_DELДомодедово-Деливери129.150
UUDD_R_APPДомодедово-Круг129.800
UUDD_R_APPДомодедово-Круг132.050
UUDD_R_APPДомодедово-Круг134.675



Спутниковое изображение